sensor_id;sensor_type;location;lat;lon;timestamp;pressure;altitude;pressure_sealevel;temperature;humidity
56392;BME280;42289;53.582;9.714;2022-09-13T00:00:14;100480.94;;;15.98;100.00
56392;BME280;42289;53.582;9.714;2022-09-13T00:02:41;100468.88;;;15.96;100.00
56392;BME280;42289;53.582;9.714;2022-09-13T00:05:08;100466.03;;;15.99;100.00
56392;BME280;42289;53.582;9.714;2022-09-13T00:07:34;100497.72;;;15.96;100.00
56392;BME280;42289;53.582;9.714;2022-09-13T00:10:02;100502.41;;;15.91;100.00
56392;BME280;42289;53.582;9.714;2022-09-13T00:12:29;100514.38;;;15.95;100.00
56392;BME280;42289;53.582;9.714;2022-09-13T00:14:55;100488.91;;;15.97;100.00
56392;BME280;42289;53.582;9.714;2022-09-13T00:17:22;100492.56;;;15.94;100.00
56392;BME280;42289;53.582;9.714;2022-09-13T00:19:48;100478.09;;;15.89;100.00
56392;BME280;42289;53.582;9.714;2022-09-13T00:22:14;100413.81;;;15.96;100.00
56392;BME280;42289;53.582;9.714;2022-09-13T00:24:41;100284.31;;;15.86;100.00
56392;BME280;42289;53.582;9.714;2022-09-13T00:27:08;100154.75;;;15.64;100.00
56392;BME280;42289;53.582;9.714;2022-09-13T00:29:36;100089.19;;;15.53;100.00
56392;BME280;42289;53.582;9.714;2022-09-13T00:32:03;100055.22;;;15.27;100.00
56392;BME280;42289;53.582;9.714;2022-09-13T00:34:29;100117.34;;;15.12;100.00
56392;BME280;42289;53.582;9.714;2022-09-13T00:36:56;100225.72;;;15.09;100.00
56392;BME280;42289;53.582;9.714;2022-09-13T00:39:22;100240.47;;;14.97;100.00
56392;BME280;42289;53.582;9.714;2022-09-13T00:41:49;100233.44;;;14.98;100.00
56392;BME280;42289;53.582;9.714;2022-09-13T00:44:51;100245.69;;;14.97;100.00
56392;BME280;42289;53.582;9.714;2022-09-13T00:47:22;100243.56;;;14.90;100.00
56392;BME280;42289;53.582;9.714;2022-09-13T00:49:52;100244.00;;;14.96;100.00
56392;BME280;42289;53.582;9.714;2022-09-13T00:52:23;100255.84;;;14.89;100.00
56392;BME280;42289;53.582;9.714;2022-09-13T00:54:55;100260.97;;;14.91;100.00
56392;BME280;42289;53.582;9.714;2022-09-13T00:57:23;100265.38;;;15.03;100.00
56392;BME280;42289;53.582;9.714;2022-09-13T00:59:55;100273.38;;;15.14;100.00
56392;BME280;42289;53.582;9.714;2022-09-13T01:02:24;100288.00;;;15.04;100.00
56392;BME280;42289;53.582;9.714;2022-09-13T01:04:51;100287.69;;;14.96;100.00
56392;BME280;42289;53.582;9.714;2022-09-13T01:07:18;100273.56;;;14.99;100.00
56392;BME280;42289;53.582;9.714;2022-09-13T01:09:46;100303.16;;;14.99;100.00
56392;BME280;42289;53.582;9.714;2022-09-13T01:12:18;100353.31;;;14.93;100.00
56392;BME280;42289;53.582;9.714;2022-09-13T01:14:51;100387.03;;;14.97;100.00
56392;BME280;42289;53.582;9.714;2022-09-13T01:17:18;100384.53;;;14.96;100.00
56392;BME280;42289;53.582;9.714;2022-09-13T01:19:44;100371.06;;;15.02;100.00
56392;BME280;42289;53.582;9.714;2022-09-13T01:22:50;100359.13;;;15.11;100.00
56392;BME280;42289;53.582;9.714;2022-09-13T01:31:39;100320.56;;;15.00;100.00
56392;BME280;42289;53.582;9.714;2022-09-13T01:34:20;100316.47;;;14.96;100.00
56392;BME280;42289;53.582;9.714;2022-09-13T01:37:18;100301.41;;;15.00;100.00
56392;BME280;42289;53.582;9.714;2022-09-13T01:40:05;100308.28;;;14.88;100.00
56392;BME280;42289;53.582;9.714;2022-09-13T01:42:53;100306.50;;;14.88;100.00
56392;BME280;42289;53.582;9.714;2022-09-13T01:45:32;100309.00;;;14.90;100.00
56392;BME280;42289;53.582;9.714;2022-09-13T01:48:09;100303.25;;;14.85;100.00
56392;BME280;42289;53.582;9.714;2022-09-13T01:50:44;100302.63;;;14.94;100.00
56392;BME280;42289;53.582;9.714;2022-09-13T01:53:18;100292.97;;;14.82;100.00
56392;BME280;42289;53.582;9.714;2022-09-13T01:55:50;100309.09;;;14.88;100.00
56392;BME280;42289;53.582;9.714;2022-09-13T01:58:22;100307.84;;;14.81;100.00
56392;BME280;42289;53.582;9.714;2022-09-13T02:00:59;100300.63;;;14.85;100.00
56392;BME280;42289;53.582;9.714;2022-09-13T02:03:34;100312.59;;;14.89;100.00
56392;BME280;42289;53.582;9.714;2022-09-13T02:06:07;100321.25;;;14.89;100.00
56392;BME280;42289;53.582;9.714;2022-09-13T02:08:39;100318.66;;;14.89;100.00
56392;BME280;42289;53.582;9.714;2022-09-13T02:11:09;100315.19;;;14.89;100.00
56392;BME280;42289;53.582;9.714;2022-09-13T02:13:39;100446.97;;;14.88;100.00
56392;BME280;42289;53.582;9.714;2022-09-13T02:16:13;100441.00;;;14.86;100.00
56392;BME280;42289;53.582;9.714;2022-09-13T02:18:45;100443.34;;;14.90;100.00
56392;BME280;42289;53.582;9.714;2022-09-13T02:21:15;100448.75;;;14.87;100.00
56392;BME280;42289;53.582;9.714;2022-09-13T02:23:47;100438.94;;;14.91;100.00
56392;BME280;42289;53.582;9.714;2022-09-13T02:26:17;100458.38;;;14.87;100.00
56392;BME280;42289;53.582;9.714;2022-09-13T02:28:47;100461.94;;;14.86;100.00
56392;BME280;42289;53.582;9.714;2022-09-13T02:31:18;100444.81;;;14.94;100.00
56392;BME280;42289;53.582;9.714;2022-09-13T02:33:52;100461.44;;;14.93;100.00
56392;BME280;42289;53.582;9.714;2022-09-13T02:36:22;100450.31;;;14.90;100.00
56392;BME280;42289;53.582;9.714;2022-09-13T02:38:51;100449.28;;;14.92;100.00
56392;BME280;42289;53.582;9.714;2022-09-13T02:41:23;100452.94;;;14.90;100.00
56392;BME280;42289;53.582;9.714;2022-09-13T02:43:55;100466.13;;;14.88;100.00
56392;BME280;42289;53.582;9.714;2022-09-13T02:46:33;100448.75;;;14.87;100.00
56392;BME280;42289;53.582;9.714;2022-09-13T02:49:11;100464.72;;;14.97;100.00
56392;BME280;42289;53.582;9.714;2022-09-13T02:51:46;100458.25;;;15.03;100.00
56392;BME280;42289;53.582;9.714;2022-09-13T02:54:23;100466.59;;;14.95;100.00
56392;BME280;42289;53.582;9.714;2022-09-13T02:56:54;100484.72;;;14.98;100.00
56392;BME280;42289;53.582;9.714;2022-09-13T02:59:23;100492.88;;;14.93;100.00
56392;BME280;42289;53.582;9.714;2022-09-13T03:01:53;100512.66;;;14.97;100.00
56392;BME280;42289;53.582;9.714;2022-09-13T03:04:23;100508.75;;;14.90;100.00
56392;BME280;42289;53.582;9.714;2022-09-13T03:06:50;100496.88;;;14.99;100.00
56392;BME280;42289;53.582;9.714;2022-09-13T03:09:17;100481.91;;;15.01;100.00
56392;BME280;42289;53.582;9.714;2022-09-13T03:12:03;100483.97;;;15.10;100.00
56392;BME280;42289;53.582;9.714;2022-09-13T03:14:40;100473.75;;;15.06;100.00
56392;BME280;42289;53.582;9.714;2022-09-13T03:17:21;100474.06;;;15.01;100.00
56392;BME280;42289;53.582;9.714;2022-09-13T03:20:05;100494.72;;;15.06;100.00
56392;BME280;42289;53.582;9.714;2022-09-13T03:22:51;100514.81;;;15.05;100.00
56392;BME280;42289;53.582;9.714;2022-09-13T03:25:29;100523.91;;;15.00;100.00
56392;BME280;42289;53.582;9.714;2022-09-13T03:28:07;100507.44;;;14.97;100.00
56392;BME280;42289;53.582;9.714;2022-09-13T03:30:40;100504.09;;;14.95;100.00
56392;BME280;42289;53.582;9.714;2022-09-13T03:33:18;100516.88;;;15.00;100.00
56392;BME280;42289;53.582;9.714;2022-09-13T03:35:52;100549.22;;;14.99;100.00
56392;BME280;42289;53.582;9.714;2022-09-13T03:38:23;100556.81;;;15.04;100.00
56392;BME280;42289;53.582;9.714;2022-09-13T03:40:55;100566.97;;;15.08;100.00
56392;BME280;42289;53.582;9.714;2022-09-13T03:43:29;100584.56;;;15.06;100.00
56392;BME280;42289;53.582;9.714;2022-09-13T03:46:01;100593.25;;;15.07;100.00
56392;BME280;42289;53.582;9.714;2022-09-13T03:48:29;100607.94;;;15.09;100.00
56392;BME280;42289;53.582;9.714;2022-09-13T03:50:57;100628.22;;;15.06;100.00
56392;BME280;42289;53.582;9.714;2022-09-13T03:53:27;100628.97;;;15.08;100.00
56392;BME280;42289;53.582;9.714;2022-09-13T03:55:55;100629.72;;;15.10;100.00
56392;BME280;42289;53.582;9.714;2022-09-13T03:58:24;100624.03;;;15.18;100.00
56392;BME280;42289;53.582;9.714;2022-09-13T04:00:51;100644.19;;;15.16;100.00
56392;BME280;42289;53.582;9.714;2022-09-13T04:03:19;100649.63;;;15.12;100.00
56392;BME280;42289;53.582;9.714;2022-09-13T04:05:45;100666.09;;;15.14;100.00
56392;BME280;42289;53.582;9.714;2022-09-13T04:08:13;100672.56;;;15.09;100.00
56392;BME280;42289;53.582;9.714;2022-09-13T04:10:39;100675.44;;;15.04;100.00
56392;BME280;42289;53.582;9.714;2022-09-13T04:13:06;100748.94;;;15.01;100.00
56392;BME280;42289;53.582;9.714;2022-09-13T04:15:33;100766.00;;;14.92;100.00
56392;BME280;42289;53.582;9.714;2022-09-13T04:17:59;101025.13;;;14.92;100.00
56392;BME280;42289;53.582;9.714;2022-09-13T04:20:26;101025.91;;;14.94;100.00
56392;BME280;42289;53.582;9.714;2022-09-13T04:22:54;101027.84;;;14.91;100.00
56392;BME280;42289;53.582;9.714;2022-09-13T04:25:23;101039.41;;;14.87;100.00
56392;BME280;42289;53.582;9.714;2022-09-13T04:27:52;101036.09;;;14.83;100.00
56392;BME280;42289;53.582;9.714;2022-09-13T04:30:20;101040.88;;;14.75;100.00
56392;BME280;42289;53.582;9.714;2022-09-13T04:32:47;101034.66;;;14.77;100.00
56392;BME280;42289;53.582;9.714;2022-09-13T04:35:13;101061.69;;;14.78;100.00
56392;BME280;42289;53.582;9.714;2022-09-13T04:37:42;101069.66;;;14.75;100.00
56392;BME280;42289;53.582;9.714;2022-09-13T04:40:09;101070.44;;;14.77;100.00
56392;BME280;42289;53.582;9.714;2022-09-13T04:42:37;101073.81;;;14.79;100.00
56392;BME280;42289;53.582;9.714;2022-09-13T04:45:04;101113.31;;;14.74;100.00
56392;BME280;42289;53.582;9.714;2022-09-13T04:47:32;101107.25;;;14.74;100.00
56392;BME280;42289;53.582;9.714;2022-09-13T04:49:58;101117.72;;;14.74;100.00
56392;BME280;42289;53.582;9.714;2022-09-13T04:52:25;101120.63;;;14.85;100.00
56392;BME280;42289;53.582;9.714;2022-09-13T04:54:51;101127.03;;;14.79;100.00
56392;BME280;42289;53.582;9.714;2022-09-13T04:57:18;101130.66;;;14.77;100.00
56392;BME280;42289;53.582;9.714;2022-09-13T04:59:45;101285.75;;;14.80;100.00
56392;BME280;42289;53.582;9.714;2022-09-13T05:02:12;101295.16;;;14.85;100.00
56392;BME280;42289;53.582;9.714;2022-09-13T05:04:38;101308.44;;;14.80;100.00
56392;BME280;42289;53.582;9.714;2022-09-13T05:07:05;101316.09;;;14.85;100.00
56392;BME280;42289;53.582;9.714;2022-09-13T05:09:31;101326.41;;;14.88;100.00
56392;BME280;42289;53.582;9.714;2022-09-13T05:11:57;101322.16;;;14.85;100.00
56392;BME280;42289;53.582;9.714;2022-09-13T05:14:24;101321.09;;;14.89;100.00
56392;BME280;42289;53.582;9.714;2022-09-13T05:16:52;101322.91;;;14.87;100.00
56392;BME280;42289;53.582;9.714;2022-09-13T05:19:18;101326.25;;;14.91;100.00
56392;BME280;42289;53.582;9.714;2022-09-13T05:21:45;101317.25;;;14.96;100.00
56392;BME280;42289;53.582;9.714;2022-09-13T05:24:11;101295.16;;;15.02;100.00
56392;BME280;42289;53.582;9.714;2022-09-13T05:26:37;101297.84;;;15.01;100.00
56392;BME280;42289;53.582;9.714;2022-09-13T05:29:04;101312.72;;;15.00;100.00
56392;BME280;42289;53.582;9.714;2022-09-13T05:31:33;101293.31;;;15.04;100.00
56392;BME280;42289;53.582;9.714;2022-09-13T05:34:03;101287.22;;;15.04;100.00
56392;BME280;42289;53.582;9.714;2022-09-13T05:36:30;101283.63;;;15.06;100.00
56392;BME280;42289;53.582;9.714;2022-09-13T05:38:57;101248.63;;;15.07;100.00
56392;BME280;42289;53.582;9.714;2022-09-13T05:41:25;101252.94;;;15.08;100.00
56392;BME280;42289;53.582;9.714;2022-09-13T05:43:51;101252.94;;;15.08;100.00
56392;BME280;42289;53.582;9.714;2022-09-13T05:46:19;101252.03;;;15.09;100.00
56392;BME280;42289;53.582;9.714;2022-09-13T05:48:46;101251.19;;;15.09;100.00
56392;BME280;42289;53.582;9.714;2022-09-13T05:51:15;101258.91;;;15.12;100.00
56392;BME280;42289;53.582;9.714;2022-09-13T05:53:44;101262.97;;;15.18;100.00
56392;BME280;42289;53.582;9.714;2022-09-13T05:56:13;101253.03;;;15.24;100.00
56392;BME280;42289;53.582;9.714;2022-09-13T05:58:41;101245.25;;;15.23;100.00
56392;BME280;42289;53.582;9.714;2022-09-13T06:01:09;101237.31;;;15.24;100.00
56392;BME280;42289;53.582;9.714;2022-09-13T06:03:35;101237.16;;;15.27;100.00
56392;BME280;42289;53.582;9.714;2022-09-13T06:06:03;101230.19;;;15.26;100.00
56392;BME280;42289;53.582;9.714;2022-09-13T06:08:32;101235.97;;;15.33;100.00
56392;BME280;42289;53.582;9.714;2022-09-13T06:11:00;101231.25;;;15.40;100.00
56392;BME280;42289;53.582;9.714;2022-09-13T06:13:28;101226.72;;;15.43;100.00
56392;BME280;42289;53.582;9.714;2022-09-13T06:15:56;101223.09;;;15.46;100.00
56392;BME280;42289;53.582;9.714;2022-09-13T06:18:23;101223.94;;;15.46;100.00
56392;BME280;42289;53.582;9.714;2022-09-13T06:20:50;101226.06;;;15.56;100.00
56392;BME280;42289;53.582;9.714;2022-09-13T06:23:17;101233.13;;;15.71;100.00
56392;BME280;42289;53.582;9.714;2022-09-13T06:25:44;101234.34;;;15.81;100.00
56392;BME280;42289;53.582;9.714;2022-09-13T06:28:11;101240.88;;;15.90;100.00
56392;BME280;42289;53.582;9.714;2022-09-13T06:30:37;101244.53;;;16.04;100.00
56392;BME280;42289;53.582;9.714;2022-09-13T06:33:04;101248.25;;;16.00;100.00
56392;BME280;42289;53.582;9.714;2022-09-13T06:35:30;101246.28;;;16.03;100.00
56392;BME280;42289;53.582;9.714;2022-09-13T06:37:57;101247.28;;;16.01;100.00
56392;BME280;42289;53.582;9.714;2022-09-13T06:40:23;101237.50;;;16.04;100.00
56392;BME280;42289;53.582;9.714;2022-09-13T06:42:51;101249.16;;;15.98;100.00
56392;BME280;42289;53.582;9.714;2022-09-13T06:45:18;101261.88;;;16.06;100.00
56392;BME280;42289;53.582;9.714;2022-09-13T06:47:45;101265.09;;;16.11;100.00
56392;BME280;42289;53.582;9.714;2022-09-13T06:50:11;101265.94;;;16.12;100.00
56392;BME280;42289;53.582;9.714;2022-09-13T06:52:38;101270.66;;;16.21;100.00
56392;BME280;42289;53.582;9.714;2022-09-13T06:55:05;101275.41;;;16.14;100.00
56392;BME280;42289;53.582;9.714;2022-09-13T06:57:32;101267.25;;;16.19;100.00
56392;BME280;42289;53.582;9.714;2022-09-13T06:59:59;101266.94;;;16.25;100.00
56392;BME280;42289;53.582;9.714;2022-09-13T07:02:26;101258.16;;;16.26;100.00
56392;BME280;42289;53.582;9.714;2022-09-13T07:04:52;101263.03;;;16.33;100.00
56392;BME280;42289;53.582;9.714;2022-09-13T07:07:19;101263.53;;;16.39;100.00
56392;BME280;42289;53.582;9.714;2022-09-13T07:09:45;101273.34;;;16.52;100.00
56392;BME280;42289;53.582;9.714;2022-09-13T07:12:11;101284.03;;;16.48;100.00
56392;BME280;42289;53.582;9.714;2022-09-13T07:14:38;101298.25;;;16.44;100.00
56392;BME280;42289;53.582;9.714;2022-09-13T07:17:06;101301.63;;;16.46;100.00
56392;BME280;42289;53.582;9.714;2022-09-13T07:19:32;101304.84;;;16.52;100.00
56392;BME280;42289;53.582;9.714;2022-09-13T07:21:59;101308.75;;;16.60;100.00
56392;BME280;42289;53.582;9.714;2022-09-13T07:24:25;101310.94;;;16.68;100.00
56392;BME280;42289;53.582;9.714;2022-09-13T07:26:52;101307.13;;;16.74;100.00
56392;BME280;42289;53.582;9.714;2022-09-13T07:29:20;101301.59;;;16.78;100.00
56392;BME280;42289;53.582;9.714;2022-09-13T07:31:50;101301.59;;;16.94;100.00
56392;BME280;42289;53.582;9.714;2022-09-13T07:34:20;101304.28;;;17.09;100.00
56392;BME280;42289;53.582;9.714;2022-09-13T07:36:47;101295.44;;;17.10;100.00
56392;BME280;42289;53.582;9.714;2022-09-13T07:39:16;101294.13;;;17.03;100.00
56392;BME280;42289;53.582;9.714;2022-09-13T07:41:43;101300.97;;;17.05;100.00
56392;BME280;42289;53.582;9.714;2022-09-13T07:44:11;101294.38;;;16.98;100.00
56392;BME280;42289;53.582;9.714;2022-09-13T07:46:38;101290.91;;;16.97;100.00
56392;BME280;42289;53.582;9.714;2022-09-13T07:49:08;101294.13;;;17.03;100.00
56392;BME280;42289;53.582;9.714;2022-09-13T07:51:37;101301.16;;;17.02;100.00
56392;BME280;42289;53.582;9.714;2022-09-13T07:54:05;101300.38;;;17.00;100.00
56392;BME280;42289;53.582;9.714;2022-09-13T07:56:34;101300.66;;;16.95;100.00
56392;BME280;42289;53.582;9.714;2022-09-13T07:59:02;101309.19;;;16.99;100.00
56392;BME280;42289;53.582;9.714;2022-09-13T08:01:33;101305.91;;;16.95;100.00
56392;BME280;42289;53.582;9.714;2022-09-13T08:04:01;101311.25;;;16.94;100.00
56392;BME280;42289;53.582;9.714;2022-09-13T08:06:29;101308.63;;;16.94;100.00
56392;BME280;42289;53.582;9.714;2022-09-13T08:08:58;101310.25;;;16.96;100.00
56392;BME280;42289;53.582;9.714;2022-09-13T08:11:26;101312.00;;;16.96;100.00
56392;BME280;42289;53.582;9.714;2022-09-13T08:13:53;101309.19;;;16.99;100.00
56392;BME280;42289;53.582;9.714;2022-09-13T08:16:22;101314.78;;;17.09;100.00
56392;BME280;42289;53.582;9.714;2022-09-13T08:18:50;101310.03;;;17.15;100.00
56392;BME280;42289;53.582;9.714;2022-09-13T08:21:17;101294.84;;;17.35;100.00
56392;BME280;42289;53.582;9.714;2022-09-13T08:23:45;101289.59;;;17.49;100.00
56392;BME280;42289;53.582;9.714;2022-09-13T08:26:13;101265.88;;;17.65;100.00
56392;BME280;42289;53.582;9.714;2022-09-13T08:28:41;101253.47;;;17.68;100.00
56392;BME280;42289;53.582;9.714;2022-09-13T08:31:08;101230.34;;;17.73;100.00
56392;BME280;42289;53.582;9.714;2022-09-13T08:33:36;101171.81;;;17.83;100.00
56392;BME280;42289;53.582;9.714;2022-09-13T08:36:04;101151.34;;;18.03;100.00
56392;BME280;42289;53.582;9.714;2022-09-13T08:38:31;101106.44;;;18.19;100.00
56392;BME280;42289;53.582;9.714;2022-09-13T08:41:00;101057.63;;;18.41;100.00
56392;BME280;42289;53.582;9.714;2022-09-13T08:43:44;100792.72;;;18.15;100.00
56392;BME280;42289;53.582;9.714;2022-09-13T08:46:21;100665.63;;;18.26;100.00
56392;BME280;42289;53.582;9.714;2022-09-13T08:48:50;100688.56;;;18.24;100.00
56392;BME280;42289;53.582;9.714;2022-09-13T08:51:27;100677.00;;;18.27;100.00
56392;BME280;42289;53.582;9.714;2022-09-13T08:53:55;100635.25;;;18.22;100.00
56392;BME280;42289;53.582;9.714;2022-09-13T08:56:27;100631.06;;;18.31;100.00
56392;BME280;42289;53.582;9.714;2022-09-13T08:59:08;100583.47;;;18.34;100.00
56392;BME280;42289;53.582;9.714;2022-09-13T09:01:49;100530.25;;;18.42;100.00
56392;BME280;42289;53.582;9.714;2022-09-13T09:04:30;100478.22;;;18.34;100.00
56392;BME280;42289;53.582;9.714;2022-09-13T09:07:04;100429.06;;;18.46;100.00
56392;BME280;42289;53.582;9.714;2022-09-13T09:09:35;100367.09;;;18.30;100.00
56392;BME280;42289;53.582;9.714;2022-09-13T09:12:13;100377.28;;;18.24;100.00
56392;BME280;42289;53.582;9.714;2022-09-13T09:14:46;100370.69;;;18.18;100.00
56392;BME280;42289;53.582;9.714;2022-09-13T09:17:23;100348.31;;;18.12;100.00
56392;BME280;42289;53.582;9.714;2022-09-13T09:19:53;100350.47;;;18.19;100.00
56392;BME280;42289;53.582;9.714;2022-09-13T09:22:22;100320.38;;;18.11;100.00
56392;BME280;42289;53.582;9.714;2022-09-13T09:24:54;100294.66;;;18.04;100.00
56392;BME280;42289;53.582;9.714;2022-09-13T09:27:21;100297.63;;;18.10;100.00
56392;BME280;42289;53.582;9.714;2022-09-13T09:29:51;100319.50;;;18.11;100.00
56392;BME280;42289;53.582;9.714;2022-09-13T09:32:36;100334.34;;;18.01;100.00
56392;BME280;42289;53.582;9.714;2022-09-13T09:35:12;100325.16;;;18.06;100.00
56392;BME280;42289;53.582;9.714;2022-09-13T09:37:45;100312.34;;;18.13;100.00
56392;BME280;42289;53.582;9.714;2022-09-13T09:40:15;100267.97;;;18.08;100.00
56392;BME280;42289;53.582;9.714;2022-09-13T09:42:44;100318.06;;;18.07;100.00
56392;BME280;42289;53.582;9.714;2022-09-13T09:45:24;100300.88;;;18.14;100.00
56392;BME280;42289;53.582;9.714;2022-09-13T09:47:52;100296.91;;;18.20;100.00
56392;BME280;42289;53.582;9.714;2022-09-13T09:50:21;100260.81;;;18.10;100.00
56392;BME280;42289;53.582;9.714;2022-09-13T09:52:52;100262.38;;;18.13;100.00
56392;BME280;42289;53.582;9.714;2022-09-13T09:55:26;100240.13;;;18.06;100.00
56392;BME280;42289;53.582;9.714;2022-09-13T09:57:57;100256.88;;;18.05;100.00
56392;BME280;42289;53.582;9.714;2022-09-13T10:00:29;100255.94;;;17.94;100.00
56392;BME280;42289;53.582;9.714;2022-09-13T10:02:58;100230.59;;;18.05;100.00
56392;BME280;42289;53.582;9.714;2022-09-13T10:05:27;100209.16;;;18.09;100.00
56392;BME280;42289;53.582;9.714;2022-09-13T10:07:57;100194.09;;;18.11;100.00
56392;BME280;42289;53.582;9.714;2022-09-13T10:10:28;100173.06;;;18.11;100.00
56392;BME280;42289;53.582;9.714;2022-09-13T10:12:57;100160.59;;;18.13;100.00
56392;BME280;42289;53.582;9.714;2022-09-13T10:15:27;100188.72;;;18.13;100.00
56392;BME280;42289;53.582;9.714;2022-09-13T10:18:16;100170.78;;;18.07;100.00
56392;BME280;42289;53.582;9.714;2022-09-13T10:20:58;100153.31;;;18.06;100.00
56392;BME280;42289;53.582;9.714;2022-09-13T10:23:25;100134.22;;;18.04;100.00
56392;BME280;42289;53.582;9.714;2022-09-13T10:25:59;100135.03;;;18.15;100.00
56392;BME280;42289;53.582;9.714;2022-09-13T10:28:29;100129.13;;;18.23;100.00
56392;BME280;42289;53.582;9.714;2022-09-13T10:31:04;100101.50;;;18.29;100.00
56392;BME280;42289;53.582;9.714;2022-09-13T10:33:34;100105.06;;;18.28;100.00
56392;BME280;42289;53.582;9.714;2022-09-13T10:36:04;100111.41;;;18.25;100.00
56392;BME280;42289;53.582;9.714;2022-09-13T10:38:35;100111.88;;;18.30;100.00
56392;BME280;42289;53.582;9.714;2022-09-13T10:41:05;100106.69;;;18.40;100.00
56392;BME280;42289;53.582;9.714;2022-09-13T10:43:36;100097.75;;;18.53;100.00
56392;BME280;42289;53.582;9.714;2022-09-13T10:46:08;100088.81;;;18.65;100.00
56392;BME280;42289;53.582;9.714;2022-09-13T10:48:45;100082.34;;;18.90;100.00
56392;BME280;42289;53.582;9.714;2022-09-13T10:51:20;100080.50;;;19.12;100.00
56392;BME280;42289;53.582;9.714;2022-09-13T10:53:48;100074.72;;;19.18;100.00
56392;BME280;42289;53.582;9.714;2022-09-13T10:56:20;100107.47;;;19.35;100.00
56392;BME280;42289;53.582;9.714;2022-09-13T10:58:47;100121.66;;;19.34;100.00
56392;BME280;42289;53.582;9.714;2022-09-13T11:01:33;100120.25;;;18.99;100.00
56392;BME280;42289;53.582;9.714;2022-09-13T11:07:19;100103.03;;;18.74;100.00
56392;BME280;42289;53.582;9.714;2022-09-13T11:09:54;100101.38;;;18.94;100.00
56392;BME280;42289;53.582;9.714;2022-09-13T11:12:30;100118.25;;;18.91;100.00
56392;BME280;42289;53.582;9.714;2022-09-13T11:15:12;100138.38;;;18.92;100.00
56392;BME280;42289;53.582;9.714;2022-09-13T11:17:59;100164.28;;;19.18;100.00
56392;BME280;42289;53.582;9.714;2022-09-13T11:20:37;100169.59;;;19.28;100.00
56392;BME280;42289;53.582;9.714;2022-09-13T11:23:40;100326.69;;;19.40;100.00
56392;BME280;42289;53.582;9.714;2022-09-13T11:26:27;100356.34;;;19.54;100.00
56392;BME280;42289;53.582;9.714;2022-09-13T11:29:06;100385.34;;;19.75;100.00
56392;BME280;42289;53.582;9.714;2022-09-13T11:31:42;100449.19;;;19.78;100.00
56392;BME280;42289;53.582;9.714;2022-09-13T11:34:27;100485.59;;;19.63;100.00
56392;BME280;42289;53.582;9.714;2022-09-13T11:37:22;100521.16;;;19.80;100.00
56392;BME280;42289;53.582;9.714;2022-09-13T11:39:57;100496.06;;;19.86;100.00
56392;BME280;42289;53.582;9.714;2022-09-13T11:42:37;100536.19;;;20.01;100.00
56392;BME280;42289;53.582;9.714;2022-09-13T11:45:17;100585.13;;;20.26;100.00
56392;BME280;42289;53.582;9.714;2022-09-13T11:50:44;100561.75;;;19.89;100.00
56392;BME280;42289;53.582;9.714;2022-09-13T11:53:42;100562.66;;;19.67;100.00
56392;BME280;42289;53.582;9.714;2022-09-13T11:56:13;100526.53;;;19.35;100.00
56392;BME280;42289;53.582;9.714;2022-09-13T11:58:44;100524.91;;;19.23;100.00
56392;BME280;42289;53.582;9.714;2022-09-13T12:01:19;100499.88;;;19.17;100.00
56392;BME280;42289;53.582;9.714;2022-09-13T12:03:50;100500.50;;;19.09;100.00
56392;BME280;42289;53.582;9.714;2022-09-13T12:06:21;100540.50;;;19.14;100.00
56392;BME280;42289;53.582;9.714;2022-09-13T12:08:55;100505.88;;;19.08;100.00
56392;BME280;42289;53.582;9.714;2022-09-13T12:11:26;100493.88;;;19.15;100.00
56392;BME280;42289;53.582;9.714;2022-09-13T12:13:57;100517.50;;;19.05;100.00
56392;BME280;42289;53.582;9.714;2022-09-13T12:16:27;100502.78;;;19.03;100.00
56392;BME280;42289;53.582;9.714;2022-09-13T12:18:58;100535.22;;;19.14;100.00
56392;BME280;42289;53.582;9.714;2022-09-13T12:21:31;100527.06;;;19.29;100.00
56392;BME280;42289;53.582;9.714;2022-09-13T12:24:03;100505.25;;;19.27;100.00
56392;BME280;42289;53.582;9.714;2022-09-13T12:26:35;100529.75;;;19.50;100.00
56392;BME280;42289;53.582;9.714;2022-09-13T12:29:10;100574.94;;;19.45;100.00
56392;BME280;42289;53.582;9.714;2022-09-13T12:31:39;100569.94;;;19.42;100.00
56392;BME280;42289;53.582;9.714;2022-09-13T12:34:09;100562.25;;;19.39;100.00
56392;BME280;42289;53.582;9.714;2022-09-13T12:36:50;100537.81;;;19.26;100.00
56392;BME280;42289;53.582;9.714;2022-09-13T12:45:27;100490.91;;;19.08;100.00
56392;BME280;42289;53.582;9.714;2022-09-13T12:48:16;100539.78;;;19.01;100.00
56392;BME280;42289;53.582;9.714;2022-09-13T12:50:57;100548.63;;;18.77;100.00
56392;BME280;42289;53.582;9.714;2022-09-13T12:53:48;100570.41;;;18.79;100.00
56392;BME280;42289;53.582;9.714;2022-09-13T12:56:29;100551.00;;;18.80;100.00
56392;BME280;42289;53.582;9.714;2022-09-13T12:59:15;100518.56;;;18.80;100.00
56392;BME280;42289;53.582;9.714;2022-09-13T13:01:46;100554.97;;;18.86;100.00
56392;BME280;42289;53.582;9.714;2022-09-13T13:04:17;100521.19;;;18.80;100.00
56392;BME280;42289;53.582;9.714;2022-09-13T13:06:50;100523.00;;;18.91;100.00
56392;BME280;42289;53.582;9.714;2022-09-13T13:09:30;100526.38;;;18.93;100.00
56392;BME280;42289;53.582;9.714;2022-09-13T13:12:00;100543.00;;;18.82;100.00
56392;BME280;42289;53.582;9.714;2022-09-13T13:14:44;100547.06;;;18.75;100.00
56392;BME280;42289;53.582;9.714;2022-09-13T13:17:37;100524.94;;;18.77;100.00
56392;BME280;42289;53.582;9.714;2022-09-13T13:20:44;100516.53;;;18.72;100.00